createdAt,value
2022-09-12T00:01:47.177Z,79.95
2022-09-12T00:04:34.193Z,79.18
2022-09-12T00:07:21.140Z,79.11
2022-09-12T00:10:08.093Z,79.11
2022-09-12T00:12:55.019Z,79.18
2022-09-12T00:15:41.853Z,79.03
2022-09-12T00:18:32.260Z,79.77
2022-09-12T00:21:23.678Z,79.26
2022-09-12T00:24:11.080Z,79.43
2022-09-12T00:26:58.025Z,79.56
2022-09-12T00:29:45.082Z,79.78
2022-09-12T00:32:31.997Z,79.69
2022-09-12T00:35:18.980Z,79.62
2022-09-12T00:38:05.820Z,79.28
2022-09-12T00:40:53.066Z,79.29
2022-09-12T00:44:01.912Z,79.67
2022-09-12T00:47:07.523Z,79.69
2022-09-12T00:50:07.373Z,79.03
2022-09-12T00:52:57.919Z,79.40
2022-09-12T00:55:50.700Z,79.60
2022-09-12T00:58:45.862Z,79.83
2022-09-12T01:01:33.102Z,79.44
2022-09-12T01:04:21.944Z,78.96
2022-09-12T01:07:10.794Z,79.69
2022-09-12T01:09:59.864Z,79.38
2022-09-12T01:12:46.961Z,79.30
2022-09-12T01:15:34.072Z,79.91
2022-09-12T01:18:30.441Z,78.77
2022-09-12T01:21:26.521Z,79.21
2022-09-12T01:24:35.417Z,79.23
2022-09-12T01:27:34.559Z,78.95
2022-09-12T01:30:39.268Z,79.91
2022-09-12T01:33:44.448Z,79.63
2022-09-12T01:36:43.452Z,79.19
2022-09-12T01:39:48.621Z,79.02
2022-09-12T01:42:45.922Z,79.07
2022-09-12T01:45:48.721Z,79.64
2022-09-12T01:48:38.937Z,79.27
2022-09-12T01:52:04.296Z,79.82
2022-09-12T01:55:07.690Z,78.91
2022-09-12T01:58:09.417Z,79.36
2022-09-12T02:01:04.979Z,79.67
2022-09-12T02:03:59.491Z,79.01
2022-09-12T02:06:55.630Z,78.81
2022-09-12T02:09:51.978Z,78.76
2022-09-12T02:12:44.857Z,78.81
2022-09-12T02:15:34.715Z,79.82
2022-09-12T02:18:25.597Z,79.44
2022-09-12T02:21:14.352Z,78.78
2022-09-12T02:24:06.760Z,79.06
2022-09-12T02:26:56.945Z,79.92
2022-09-12T02:29:43.936Z,79.91
2022-09-12T02:32:55.133Z,78.93
2022-09-12T02:35:41.920Z,78.80
2022-09-12T02:38:43.295Z,79.69
2022-09-12T02:41:32.200Z,79.71
2022-09-12T02:44:19.260Z,79.25
2022-09-12T02:47:14.147Z,78.98
2022-09-12T02:50:01.249Z,78.89
2022-09-12T02:52:49.515Z,78.98
2022-09-12T02:55:36.648Z,78.95
2022-09-12T02:58:28.724Z,79.78
2022-09-12T03:01:21.820Z,78.71
2022-09-12T03:04:29.948Z,79.57
2022-09-12T03:07:25.695Z,79.67
2022-09-12T03:10:22.875Z,78.75
2022-09-12T03:13:20.885Z,79.38
2022-09-12T03:16:19.881Z,79.57
2022-09-12T03:19:09.228Z,78.36
2022-09-12T03:21:54.695Z,78.97
2022-09-12T03:24:38.314Z,78.99
2022-09-12T03:27:10.579Z,79.46
2022-09-12T03:29:39.008Z,78.48
2022-09-12T03:32:06.021Z,79.40
2022-09-12T03:34:33.519Z,79.42
2022-09-12T03:37:00.524Z,78.64
2022-09-12T03:39:28.282Z,78.54
2022-09-12T03:41:55.439Z,79.03
2022-09-12T03:44:23.371Z,78.93
2022-09-12T03:47:11.459Z,79.42
2022-09-12T03:49:58.431Z,78.76
2022-09-12T03:52:45.399Z,79.18
2022-09-12T03:55:32.298Z,79.62
2022-09-12T03:57:59.349Z,79.11
2022-09-12T04:00:26.389Z,78.67
2022-09-12T04:02:55.635Z,79.78
2022-09-12T04:05:23.424Z,79.67
2022-09-12T04:07:50.441Z,79.84
2022-09-12T04:10:37.504Z,79.92
2022-09-12T04:13:24.454Z,79.28
2022-09-12T04:16:21.451Z,79.78
2022-09-12T04:19:08.286Z,80.31
2022-09-12T04:21:55.322Z,79.72
2022-09-12T04:24:42.348Z,80.01
2022-09-12T04:27:29.279Z,80.13
2022-09-12T04:30:16.408Z,80.47
2022-09-12T04:33:07.915Z,80.18
2022-09-12T04:35:56.014Z,80.71
2022-09-12T04:38:43.008Z,80.55
2022-09-12T04:41:32.057Z,80.22
2022-09-12T04:44:21.944Z,80.11
2022-09-12T04:47:08.839Z,80.44
2022-09-12T04:49:55.828Z,80.55
2022-09-12T04:52:42.641Z,80.76
2022-09-12T04:55:30.036Z,80.43
2022-09-12T04:58:16.941Z,80.06
2022-09-12T05:01:03.971Z,80.51
2022-09-12T05:03:50.833Z,80.60
2022-09-12T05:06:41.096Z,80.57
2022-09-12T05:09:30.680Z,80.73
2022-09-12T05:12:17.844Z,80.30
2022-09-12T05:15:04.842Z,80.53
2022-09-12T05:17:51.999Z,80.21
2022-09-12T05:20:38.903Z,79.64
2022-09-12T05:23:25.847Z,80.53
2022-09-12T05:26:13.924Z,79.83
2022-09-12T05:29:01.426Z,79.72
2022-09-12T05:31:48.932Z,79.85
2022-09-12T05:34:35.720Z,79.82
2022-09-12T05:37:22.712Z,79.60
2022-09-12T05:40:09.594Z,79.92
2022-09-12T05:42:56.634Z,80.19
2022-09-12T05:45:43.751Z,79.54
2022-09-12T05:48:30.719Z,80.01
2022-09-12T05:51:44.843Z,80.41
2022-09-12T05:54:34.386Z,79.43
2022-09-12T05:57:21.304Z,79.70
2022-09-12T06:00:08.186Z,79.37
2022-09-12T06:02:58.829Z,80.02
2022-09-12T06:05:50.480Z,79.37
2022-09-12T06:08:37.881Z,79.83
2022-09-12T06:11:26.291Z,79.81
2022-09-12T06:14:13.864Z,79.93
2022-09-12T06:17:01.105Z,80.26
2022-09-12T06:19:48.135Z,79.48
2022-09-12T06:22:35.169Z,79.73
2022-09-12T06:25:22.142Z,79.71
2022-09-12T06:28:09.011Z,80.47
2022-09-12T06:30:56.159Z,79.75
2022-09-12T06:33:43.131Z,80.11
2022-09-12T06:36:35.261Z,80.44
2022-09-12T06:39:25.126Z,80.40
2022-09-12T06:42:12.902Z,80.16
2022-09-12T06:44:59.862Z,79.38
2022-09-12T06:47:46.798Z,79.12
2022-09-12T06:50:33.791Z,79.95
2022-09-12T06:53:20.654Z,80.28
2022-09-12T06:55:48.244Z,79.58
2022-09-12T06:58:15.064Z,79.22
2022-09-12T07:00:42.248Z,79.47
2022-09-12T07:03:09.736Z,79.34
2022-09-12T07:05:37.440Z,80.24
2022-09-12T07:08:04.470Z,80.45
2022-09-12T07:10:31.944Z,79.33
2022-09-12T07:12:59.163Z,79.34
2022-09-12T07:15:26.981Z,79.63
2022-09-12T07:17:57.434Z,79.37
2022-09-12T07:20:24.391Z,79.67
2022-09-12T07:22:51.295Z,80.24
2022-09-12T07:25:18.222Z,79.56
2022-09-12T07:27:49.284Z,80.24
2022-09-12T07:30:18.242Z,79.64
2022-09-12T07:32:45.180Z,80.21
2022-09-12T07:35:32.721Z,79.84
2022-09-12T07:38:19.575Z,79.99
2022-09-12T07:41:06.630Z,79.92
2022-09-12T07:43:53.436Z,79.52
2022-09-12T07:46:40.775Z,79.99
2022-09-12T07:49:27.702Z,79.64
2022-09-12T07:52:15.038Z,79.63
2022-09-12T07:55:02.035Z,79.33
2022-09-12T07:57:50.466Z,79.54
2022-09-12T08:00:38.533Z,79.48
2022-09-12T08:03:25.663Z,78.97
2022-09-12T08:06:12.521Z,79.26
2022-09-12T08:09:00.038Z,78.28
2022-09-12T08:11:48.793Z,78.87
2022-09-12T08:14:35.786Z,78.45
2022-09-12T08:17:22.663Z,77.86
2022-09-12T08:20:09.760Z,78.48
2022-09-12T08:22:56.591Z,77.87
2022-09-12T08:25:43.564Z,77.70
2022-09-12T08:28:30.395Z,77.27
2022-09-12T08:31:27.478Z,77.76
2022-09-12T08:33:58.180Z,77.69
2022-09-12T08:36:47.492Z,77.85
2022-09-12T08:39:37.426Z,77.80
2022-09-12T08:42:26.364Z,77.44
2022-09-12T08:45:37.373Z,77.55
2022-09-12T08:48:25.967Z,76.77
2022-09-12T08:51:12.871Z,76.65
2022-09-12T08:54:01.226Z,76.00
2022-09-12T08:56:51.872Z,76.35
2022-09-12T08:59:38.863Z,76.22
2022-09-12T09:02:55.308Z,76.12
2022-09-12T09:06:04.753Z,75.48
2022-09-12T09:08:47.949Z,75.72
2022-09-12T09:11:54.135Z,75.00
2022-09-12T09:15:08.537Z,75.13
2022-09-12T09:18:03.105Z,74.59
2022-09-12T09:21:06.688Z,74.78
2022-09-12T09:24:03.030Z,74.17
2022-09-12T09:27:01.096Z,73.97
2022-09-12T09:29:54.344Z,74.14
2022-09-12T09:32:52.789Z,74.00
2022-09-12T09:35:49.656Z,73.17
2022-09-12T09:39:07.756Z,73.03
2022-09-12T09:42:03.831Z,72.57
2022-09-12T09:44:51.156Z,72.40
2022-09-12T09:47:38.708Z,71.98
2022-09-12T09:50:25.752Z,71.47
2022-09-12T09:53:16.855Z,71.37
2022-09-12T09:56:05.820Z,71.09
2022-09-12T09:58:54.401Z,70.40
2022-09-12T10:01:41.504Z,70.22
2022-09-12T10:04:59.222Z,70.36
2022-09-12T10:07:47.067Z,69.45
2022-09-12T10:10:35.480Z,69.77
2022-09-12T10:13:41.892Z,69.21
2022-09-12T10:16:42.490Z,69.27
2022-09-12T10:20:19.855Z,69.07
2022-09-12T10:23:07.811Z,68.66
2022-09-12T10:25:54.699Z,68.35
2022-09-12T10:28:57.140Z,68.16
2022-09-12T10:32:00.924Z,67.61
2022-09-12T10:35:06.429Z,67.60
2022-09-12T10:37:59.966Z,67.43
2022-09-12T10:40:59.166Z,66.57
2022-09-12T10:44:02.007Z,67.26
2022-09-12T10:46:49.472Z,65.94
2022-09-12T10:49:48.484Z,65.95
2022-09-12T10:52:43.589Z,66.40
2022-09-12T10:55:36.740Z,66.23
2022-09-12T10:58:32.860Z,65.67
2022-09-12T11:01:13.313Z,65.27
2022-09-12T11:04:28.208Z,65.07
2022-09-12T11:07:40.093Z,64.84
2022-09-12T11:11:21.533Z,64.27
2022-09-12T11:14:29.606Z,64.27
2022-09-12T11:17:25.434Z,63.61
2022-09-12T11:19:59.303Z,61.97
2022-09-12T11:22:52.989Z,61.41
2022-09-12T11:25:20.217Z,61.16
2022-09-12T11:28:22.798Z,60.92
2022-09-12T11:30:55.909Z,59.65
2022-09-12T11:33:42.951Z,58.92
2022-09-12T11:36:25.001Z,58.49
2022-09-12T11:39:17.393Z,58.08
2022-09-12T11:41:58.085Z,58.38
2022-09-12T11:44:38.716Z,57.43
2022-09-12T11:47:14.683Z,57.68
2022-09-12T11:49:47.971Z,57.04
2022-09-12T11:52:19.925Z,56.28
2022-09-12T11:55:05.423Z,56.84
2022-09-12T11:58:05.273Z,56.41
2022-09-12T12:00:36.453Z,56.13
2022-09-12T12:03:28.442Z,56.47
2022-09-12T12:06:21.978Z,55.94
2022-09-12T12:08:50.690Z,55.93
2022-09-12T12:11:55.344Z,55.42
2022-09-12T12:14:50.911Z,55.27
2022-09-12T12:17:42.268Z,55.07
2022-09-12T12:20:37.397Z,55.36
2022-09-12T12:23:24.604Z,55.09
2022-09-12T12:26:14.788Z,55.34
2022-09-12T12:29:01.749Z,55.47
2022-09-12T12:31:48.583Z,54.66
2022-09-12T12:34:46.712Z,55.62
2022-09-12T12:37:39.804Z,54.62
2022-09-12T12:40:41.997Z,54.43
2022-09-12T12:43:49.742Z,55.14
2022-09-12T12:46:44.775Z,55.00
2022-09-12T12:49:41.099Z,54.51
2022-09-12T12:52:37.761Z,54.36
2022-09-12T12:55:25.145Z,54.50
2022-09-12T12:58:20.339Z,55.65
2022-09-12T13:01:25.269Z,56.67
2022-09-12T13:04:20.660Z,57.01
2022-09-12T13:07:21.856Z,58.03
2022-09-12T13:10:11.929Z,57.28
2022-09-12T13:13:06.932Z,58.19
2022-09-12T13:15:56.956Z,57.67
2022-09-12T13:19:06.243Z,58.03
2022-09-12T13:21:55.393Z,58.24
2022-09-12T13:24:43.487Z,58.65
2022-09-12T13:27:42.225Z,59.45
2022-09-12T13:34:06.368Z,59.82
2022-09-12T13:37:29.769Z,59.52
2022-09-12T13:40:38.145Z,60.06
2022-09-12T13:43:27.698Z,59.59
2022-09-12T13:46:14.718Z,59.75
2022-09-12T13:49:01.676Z,60.11
2022-09-12T13:51:36.393Z,60.79
2022-09-12T13:54:05.402Z,60.79
2022-09-12T13:56:32.427Z,60.54
2022-09-12T13:59:01.671Z,61.01
2022-09-12T14:01:40.541Z,60.89
2022-09-12T14:04:38.181Z,61.77
2022-09-12T14:07:25.641Z,61.49
2022-09-12T14:09:58.340Z,61.67
2022-09-12T14:12:32.465Z,62.00
2022-09-12T14:14:59.577Z,61.77
2022-09-12T14:17:55.296Z,62.01
2022-09-12T14:20:43.940Z,62.47
2022-09-12T14:23:52.891Z,62.51
2022-09-12T14:26:39.995Z,62.96
2022-09-12T14:29:28.248Z,63.34
2022-09-12T14:32:25.003Z,63.42
2022-09-12T14:35:47.372Z,63.41
2022-09-12T14:38:37.151Z,63.01
2022-09-12T14:41:29.075Z,62.52
2022-09-12T14:44:20.501Z,62.90
2022-09-12T14:46:48.782Z,63.25
2022-09-12T14:49:21.402Z,63.16
2022-09-12T14:51:51.430Z,63.14
2022-09-12T14:54:27.588Z,63.23
2022-09-12T14:56:55.861Z,63.08
2022-09-12T14:59:48.630Z,62.82
2022-09-12T15:02:41.607Z,62.96
2022-09-12T15:05:28.594Z,63.42
2022-09-12T15:08:20.570Z,62.97
2022-09-12T15:11:07.860Z,62.88
2022-09-12T15:14:00.462Z,62.96
2022-09-12T15:16:47.711Z,63.24
2022-09-12T15:19:34.879Z,63.60
2022-09-12T15:22:22.155Z,63.81
2022-09-12T15:25:09.084Z,63.58
2022-09-12T15:27:56.204Z,63.22
2022-09-12T15:30:43.209Z,63.70
2022-09-12T15:33:31.400Z,63.27
2022-09-12T15:36:18.378Z,63.57
2022-09-12T15:39:06.107Z,63.81
2022-09-12T15:41:55.264Z,64.18
2022-09-12T15:44:42.301Z,64.26
2022-09-12T15:47:32.805Z,64.47
2022-09-12T15:50:19.847Z,64.37
2022-09-12T15:53:06.784Z,64.26
2022-09-12T15:55:53.653Z,64.59
2022-09-12T15:58:57.220Z,64.84
2022-09-12T16:01:45.103Z,64.84
2022-09-12T16:04:43.672Z,65.11
2022-09-12T16:07:30.881Z,64.92
2022-09-12T16:10:17.660Z,65.35
2022-09-12T16:13:05.265Z,65.30
2022-09-12T16:15:52.129Z,65.67
2022-09-12T16:18:39.260Z,65.87
2022-09-12T16:21:26.439Z,66.18
2022-09-12T16:24:13.530Z,66.14
2022-09-12T16:27:01.312Z,66.11
2022-09-12T16:29:48.487Z,66.54
2022-09-12T16:32:35.260Z,66.42
2022-09-12T16:35:22.316Z,66.51
2022-09-12T16:38:09.245Z,66.81
2022-09-12T16:40:56.188Z,66.79
2022-09-12T16:43:42.953Z,67.27
2022-09-12T16:46:19.165Z,67.56
2022-09-12T16:48:52.463Z,67.57
2022-09-12T16:51:27.903Z,67.42
2022-09-12T16:53:55.871Z,67.82
2022-09-12T16:56:23.472Z,67.93
2022-09-12T16:59:10.476Z,68.04
2022-09-12T17:01:58.036Z,67.51
2022-09-12T17:04:45.028Z,68.15
2022-09-12T17:07:32.332Z,68.00
2022-09-12T17:10:19.283Z,68.29
2022-09-12T17:13:06.082Z,68.42
2022-09-12T17:15:53.075Z,68.53
2022-09-12T17:18:40.132Z,68.40
2022-09-12T17:21:28.917Z,68.38
2022-09-12T17:24:15.958Z,68.69
2022-09-12T17:27:03.395Z,68.47
2022-09-12T17:29:50.404Z,68.78
2022-09-12T17:32:37.367Z,68.24
2022-09-12T17:35:24.480Z,68.43
2022-09-12T17:38:15.438Z,68.79
2022-09-12T17:40:59.441Z,68.91
2022-09-12T17:43:27.096Z,68.77
2022-09-12T17:45:57.493Z,69.17
2022-09-12T17:48:44.746Z,69.22
2022-09-12T17:51:34.452Z,69.36
2022-09-12T17:54:27.050Z,69.89
2022-09-12T17:56:55.597Z,69.41
2022-09-12T17:59:24.779Z,70.06
2022-09-12T18:02:10.305Z,69.96
2022-09-12T18:04:37.481Z,69.89
2022-09-12T18:07:05.037Z,70.24
2022-09-12T18:09:52.053Z,70.29
2022-09-12T18:12:39.007Z,70.67
2022-09-12T18:15:26.600Z,70.31
2022-09-12T18:18:13.575Z,70.72
2022-09-12T18:21:10.168Z,70.66
2022-09-12T18:23:57.643Z,71.07
2022-09-12T18:26:46.183Z,71.38
2022-09-12T18:29:33.696Z,71.58
2022-09-12T18:32:20.813Z,71.82
2022-09-12T18:35:07.812Z,72.13
2022-09-12T18:37:54.824Z,72.36
2022-09-12T18:40:41.810Z,72.68
2022-09-12T18:43:28.780Z,73.22
2022-09-12T18:46:15.842Z,73.80
2022-09-12T18:49:03.569Z,73.78
2022-09-12T18:51:55.722Z,74.21
2022-09-12T18:54:42.708Z,74.47
2022-09-12T18:57:29.875Z,74.86
2022-09-12T19:00:16.825Z,75.07
2022-09-12T19:03:03.696Z,75.68
2022-09-12T19:05:50.711Z,75.73
2022-09-12T19:08:37.608Z,76.20
2022-09-12T19:11:24.963Z,76.62
2022-09-12T19:14:13.112Z,76.37
2022-09-12T19:17:00.108Z,76.63
2022-09-12T19:19:47.019Z,76.94
2022-09-12T19:22:33.980Z,77.51
2022-09-12T19:25:00.900Z,77.51
2022-09-12T19:27:48.131Z,78.19
2022-09-12T19:30:35.057Z,77.76
2022-09-12T19:33:21.940Z,78.16
2022-09-12T19:36:13.737Z,78.28
2022-09-12T19:39:09.123Z,78.35
2022-09-12T19:41:56.380Z,78.53
2022-09-12T19:44:43.377Z,78.86
2022-09-12T19:47:30.344Z,79.05
2022-09-12T19:50:17.565Z,79.10
2022-09-12T19:53:04.637Z,79.15
2022-09-12T19:55:51.611Z,79.39
2022-09-12T19:58:38.455Z,79.48
2022-09-12T20:01:30.597Z,79.33
2022-09-12T20:04:18.634Z,79.65
2022-09-12T20:07:05.505Z,79.50
2022-09-12T20:09:52.349Z,79.95
2022-09-12T20:12:39.363Z,80.13
2022-09-12T20:15:27.384Z,80.39
2022-09-12T20:18:15.757Z,80.41
2022-09-12T20:21:02.613Z,79.99
2022-09-12T20:23:49.585Z,80.29
2022-09-12T20:26:36.960Z,80.60
2022-09-12T20:29:25.641Z,80.80
2022-09-12T20:32:12.608Z,80.78
2022-09-12T20:34:59.526Z,80.91
2022-09-12T20:37:46.373Z,80.74
2022-09-12T20:40:33.185Z,80.90
2022-09-12T20:43:20.022Z,81.04
2022-09-12T20:46:06.899Z,81.22
2022-09-12T20:48:53.775Z,81.15
2022-09-12T20:51:42.084Z,81.20
2022-09-12T20:54:30.120Z,81.22
2022-09-12T20:57:17.196Z,81.47
2022-09-12T21:00:03.987Z,81.40
2022-09-12T21:02:51.465Z,81.44
2022-09-12T21:05:38.403Z,81.53
2022-09-12T21:08:25.707Z,81.01
2022-09-12T21:11:12.560Z,81.07
2022-09-12T21:14:00.176Z,80.91
2022-09-12T21:16:47.197Z,81.15
2022-09-12T21:19:34.276Z,81.56
2022-09-12T21:22:21.060Z,81.31
2022-09-12T21:25:07.983Z,81.46
2022-09-12T21:27:54.787Z,81.59
2022-09-12T21:30:42.104Z,81.40
2022-09-12T21:33:29.628Z,81.26
2022-09-12T21:36:22.042Z,81.59
2022-09-12T21:39:08.871Z,81.34
2022-09-12T21:41:56.009Z,81.66
2022-09-12T21:44:42.991Z,81.80
2022-09-12T21:47:29.973Z,81.39
2022-09-12T21:50:16.792Z,81.82
2022-09-12T21:53:04.649Z,81.80
2022-09-12T21:55:32.308Z,81.80
2022-09-12T21:57:59.323Z,81.92
2022-09-12T22:00:26.444Z,82.08
2022-09-12T22:02:53.799Z,81.71
2022-09-12T22:05:21.373Z,81.70
2022-09-12T22:07:48.491Z,81.69
2022-09-12T22:10:15.544Z,81.83
2022-09-12T22:12:46.175Z,81.67
2022-09-12T22:15:38.747Z,81.57
2022-09-12T22:18:01.283Z,81.70
2022-09-12T22:20:28.758Z,82.14
2022-09-12T22:23:14.073Z,81.79
2022-09-12T22:25:41.227Z,81.72
2022-09-12T22:28:08.077Z,81.49
2022-09-12T22:30:35.467Z,81.78
2022-09-12T22:33:02.670Z,82.08
2022-09-12T22:35:29.589Z,81.93
2022-09-12T22:37:56.535Z,82.05
2022-09-12T22:40:23.679Z,81.85
2022-09-12T22:42:54.050Z,81.83
2022-09-12T22:45:21.045Z,82.13
2022-09-12T22:47:48.005Z,82.14
2022-09-12T22:50:14.915Z,81.77
2022-09-12T22:52:42.366Z,82.21
2022-09-12T22:55:09.954Z,82.29
2022-09-12T22:57:37.455Z,82.09
2022-09-12T23:00:08.592Z,82.24
2022-09-12T23:02:35.588Z,82.43
2022-09-12T23:05:02.737Z,82.32
2022-09-12T23:07:29.739Z,82.32
2022-09-12T23:09:57.033Z,82.23
2022-09-12T23:12:24.330Z,82.23
2022-09-12T23:14:51.403Z,82.64
2022-09-12T23:17:38.316Z,82.75
2022-09-12T23:20:25.636Z,82.98
2022-09-12T23:23:12.724Z,82.82
2022-09-12T23:25:59.762Z,82.27
2022-09-12T23:28:46.729Z,82.27
2022-09-12T23:31:33.837Z,82.98
2022-09-12T23:34:23.745Z,82.52
2022-09-12T23:37:10.547Z,82.43
2022-09-12T23:39:57.621Z,82.74
2022-09-12T23:42:44.736Z,82.26
2022-09-12T23:45:31.827Z,82.64
2022-09-12T23:48:18.875Z,82.57
2022-09-12T23:51:07.721Z,82.87
2022-09-12T23:53:55.047Z,82.52
2022-09-12T23:56:42.097Z,82.96
2022-09-12T23:59:29.012Z,83.21
